Quantum Of The Seas — C6BH8 — position and weather

sailwx.info

Track history (hours):
 
Tides and Currents Weather Stations Pressure Air Temp Water Temp Dewpoint Dewpoint Depression Visibility Wind Speed Wind Dir Waves Ship Positions

Quantum Of The Seas

Last reported at 2017-Aug-20 10:00 UTC. Time now 2017-Aug-20 13:39 UTC.
Position N 31°00' E 125°18'.

Length 348 m; draft 9 m.

Type: Passenger vessel. MMSI: 311000267.

Wind from 180 at 34 knots

Barometer 1003.0 mb
Visibility: greater than 10.8 NM

Date/timePositionNaut miles runAvg speedWind from/ knotsBaromVisibWave heightAir tempDewpointWater temp
2017-Aug-20 10:00N 31°00' E 125°18'15417.1 180 / 341003.010.8
2017-Aug-20 01:00N 31°00' E 128°18'2120.6 180 / 201007.010.8
2017-Aug-20 00:00N 31°00' E 128°42'18118.1 170 / 181008.010.8
2017-Aug-19 14:00N 31°48' E 132°06'7017.5 210 / 91013.110.8 28.0 27.0
2017-Aug-19 10:00N 32°36' E 133°06'5 0.3 190 / 121007.0 28.5 30.3
2017-Aug-18 19:00N 32°36' E 133°00'49 1.7 350 / 151007.010.8
2017-Aug-17 15:00N 32°18' E 132°06'7819.4 310 / 161009.110.8 28.0 27.0
2017-Aug-17 11:00N 31°12' E 131°18'4522.4 270 / 161005.510.8 28.4 28.5
2017-Aug-17 09:00N 30°54' E 130°30'7224.0 300 / 131005.510.8 29.3 30.4
2017-Aug-17 06:00N 30°54' E 129°06'14921.3 230 / 151009.010.8 31.0 30.0
2017-Aug-16 23:00N 31°00' E 126°12'19919.5 210 / 151009.110.8 29.5 30.9
2017-Aug-16 12:49N 31°06' E 122°20'813.1
2017-Aug-16 12:11N 31°10' E 122°12'312.0
2017-Aug-16 11:56N 31°12' E 122°09'512.0
2017-Aug-16 11:30N 31°14' E 122°03'611.4
2017-Aug-16 11:00N 31°15' E 121°57'714.3
2017-Aug-16 10:30N 31°17' E 121°49'713.1
2017-Aug-16 10:00N 31°20' E 121°42'611.1
2017-Aug-16 09:30N 31°23' E 121°36'511.0
2017-Aug-16 09:00N 31°25' E 121°30'0 0.3
2017-Aug-16 08:30N 31°25' E 121°30'0 0.0
2017-Aug-16 07:54N 31°25' E 121°30'0 0.0
2017-Aug-16 07:30N 31°25' E 121°30'0 0.0
2017-Aug-16 06:54N 31°25' E 121°30'0 0.0
2017-Aug-16 06:30N 31°25' E 121°30'0 0.0
2017-Aug-16 06:00N 31°25' E 121°30'0 0.0
2017-Aug-16 05:30N 31°25' E 121°30'0 0.0
2017-Aug-16 05:00N 31°25' E 121°30'0 0.0
2017-Aug-16 04:27N 31°25' E 121°30'0 0.0
2017-Aug-16 04:00N 31°25' E 121°30'0 0.0
2017-Aug-16 03:30N 31°25' E 121°30'0 0.0
2017-Aug-16 03:00N 31°25' E 121°30'0 0.0
2017-Aug-16 02:30N 31°25' E 121°30'0 0.0
2017-Aug-16 02:00N 31°25' E 121°30'0 0.0
2017-Aug-16 01:30N 31°25' E 121°30'0 0.0
2017-Aug-16 01:00N 31°25' E 121°30'0 0.0
2017-Aug-16 00:30N 31°25' E 121°30'0 0.0
2017-Aug-16 00:00N 31°25' E 121°30'0 0.0
2017-Aug-15 23:30N 31°25' E 121°30'0 0.0
2017-Aug-15 23:00N 31°25' E 121°30'0 0.0
2017-Aug-15 22:30N 31°25' E 121°30'1 2.4
2017-Aug-15 22:00N 31°25' E 121°32'511.0
2017-Aug-15 21:30N 31°22' E 121°37'5 9.9
2017-Aug-15 21:00N 31°20' E 121°42'5 9.4
2017-Aug-15 20:30N 31°18' E 121°47'611.6
2017-Aug-15 20:00N 31°16' E 121°54'5 9.9
2017-Aug-15 19:30N 31°15' E 121°59'510.0
2017-Aug-15 19:00N 31°14' E 122°05'5 9.6
2017-Aug-15 18:30N 31°11' E 122°10'5 9.4
2017-Aug-15 18:00N 31°09' E 122°14'4 8.4
2017-Aug-15 17:30N 31°06' E 122°18'4 7.3
2017-Aug-15 17:00N 31°06' E 122°23'4 7.5
2017-Aug-15 16:30N 31°07' E 122°27'7 9.8
2017-Aug-15 15:48N 31°07' E 122°35'514.9
2017-Aug-15 15:30N 31°07' E 122°40'312 6.7
2017-Aug-13 17:00N 32°24' E 128°36'32611.4 150 / 171006.910.8
2017-Aug-12 12:19N 31°06' E 122°24'514.7
2017-Aug-12 12:00N 31°06' E 122°18'815.0
2017-Aug-12 11:30N 31°10' E 122°11'715.1
2017-Aug-12 11:00N 31°14' E 122°04'815.6
2017-Aug-12 10:30N 31°16' E 121°55'815.2
2017-Aug-12 10:00N 31°18' E 121°46'713.0
2017-Aug-12 09:30N 31°21' E 121°39'612.1
2017-Aug-12 09:00N 31°24' E 121°33'3 5.0
2017-Aug-12 08:28N 31°25' E 121°30'0 0.0
2017-Aug-12 07:58N 31°25' E 121°30'0 0.0
2017-Aug-12 07:25N 31°25' E 121°30'0 0.0
2017-Aug-12 06:58N 31°25' E 121°30'0 0.0
2017-Aug-12 06:22N 31°25' E 121°30'0 0.0
2017-Aug-12 05:58N 31°25' E 121°30'0 0.0
2017-Aug-12 05:25N 31°25' E 121°30'0 0.0
2017-Aug-12 04:55N 31°25' E 121°30'0 0.0
2017-Aug-12 04:22N 31°25' E 121°30'0 0.0
2017-Aug-12 03:58N 31°25' E 121°30'0 0.0
2017-Aug-12 03:25N 31°25' E 121°30'0 0.0
2017-Aug-12 02:58N 31°25' E 121°30'0 0.0
2017-Aug-12 02:22N 31°25' E 121°30'0 0.0
2017-Aug-12 01:55N 31°25' E 121°30'0 0.0
2017-Aug-12 01:28N 31°25' E 121°30'0 0.0
2017-Aug-12 00:58N 31°25' E 121°30'0 0.0
2017-Aug-12 00:28N 31°25' E 121°30'0 0.0
2017-Aug-11 23:58N 31°25' E 121°30'0 0.0
2017-Aug-11 23:28N 31°25' E 121°30'0 0.0
2017-Aug-11 22:55N 31°25' E 121°30'0 0.0
2017-Aug-11 22:28N 31°25' E 121°30'0 0.0
2017-Aug-11 21:58N 31°25' E 121°30'0 0.0
2017-Aug-11 21:28N 31°25' E 121°30'0 0.0
2017-Aug-11 20:58N 31°25' E 121°30'0 0.0
2017-Aug-11 20:28N 31°25' E 121°30'0 0.0
2017-Aug-11 19:52N 31°25' E 121°30'0 0.0
2017-Aug-11 19:28N 31°25' E 121°30'0 0.0
2017-Aug-11 18:58N 31°25' E 121°30'0 0.0
2017-Aug-11 18:30N 31°25' E 121°30'1 2.3
2017-Aug-11 18:00N 31°25' E 121°32'510.6
2017-Aug-11 17:31N 31°22' E 121°37'610.9
2017-Aug-11 17:00N 31°20' E 121°43'611.4
2017-Aug-11 16:31N 31°17' E 121°49'611.5
2017-Aug-11 16:00N 31°16' E 121°55'611.8
2017-Aug-11 15:31N 31°14' E 122°02'510.5
2017-Aug-11 15:01N 31°13' E 122°08'10 9.9
2017-Aug-11 14:01N 31°07' E 122°17'510.7
2017-Aug-11 13:30N 31°06' E 122°23'713.7
2017-Aug-11 13:00N 31°07' E 122°31'27217.0
2017-Aug-10 21:00N 31°36' E 127°48'   330 / 141002.810.8
Track history (hours):
 
Tides and Currents Weather Stations Pressure Air Temp Water Temp Dewpoint Dewpoint Depression Visibility Wind Speed Wind Dir Waves Ship Positions

Quantum Of The Seas

Last reported at 2017-Aug-20 10:00 UTC. Time now 2017-Aug-20 13:39 UTC.
Position N 31°00' E 125°18'.

Length 348 m; draft 9 m.

Type: Passenger vessel. MMSI: 311000267.

Wind from 180 at 34 knots

Barometer 1003.0 mb
Visibility: greater than 10.8 NM

Date/timePositionNaut miles runAvg speedWind from/ knotsBaromVisibWave heightAir tempDewpointWater temp
2017-Aug-20 10:00N 31°00' E 125°18'15417.1 180 / 341003.010.8
2017-Aug-20 01:00N 31°00' E 128°18'2120.6 180 / 201007.010.8
2017-Aug-20 00:00N 31°00' E 128°42'18118.1 170 / 181008.010.8
2017-Aug-19 14:00N 31°48' E 132°06'7017.5 210 / 91013.110.8 28.0 27.0
2017-Aug-19 10:00N 32°36' E 133°06'5 0.3 190 / 121007.0 28.5 30.3
2017-Aug-18 19:00N 32°36' E 133°00'49 1.7 350 / 151007.010.8
2017-Aug-17 15:00N 32°18' E 132°06'7819.4 310 / 161009.110.8 28.0 27.0
2017-Aug-17 11:00N 31°12' E 131°18'4522.4 270 / 161005.510.8 28.4 28.5
2017-Aug-17 09:00N 30°54' E 130°30'7224.0 300 / 131005.510.8 29.3 30.4
2017-Aug-17 06:00N 30°54' E 129°06'14921.3 230 / 151009.010.8 31.0 30.0
2017-Aug-16 23:00N 31°00' E 126°12'19919.5 210 / 151009.110.8 29.5 30.9
2017-Aug-16 12:49N 31°06' E 122°20'813.1
2017-Aug-16 12:11N 31°10' E 122°12'312.0
2017-Aug-16 11:56N 31°12' E 122°09'512.0
2017-Aug-16 11:30N 31°14' E 122°03'611.4
2017-Aug-16 11:00N 31°15' E 121°57'714.3
2017-Aug-16 10:30N 31°17' E 121°49'713.1
2017-Aug-16 10:00N 31°20' E 121°42'611.1
2017-Aug-16 09:30N 31°23' E 121°36'511.0
2017-Aug-16 09:00N 31°25' E 121°30'0 0.3
2017-Aug-16 08:30N 31°25' E 121°30'0 0.0
2017-Aug-16 07:54N 31°25' E 121°30'0 0.0
2017-Aug-16 07:30N 31°25' E 121°30'0 0.0
2017-Aug-16 06:54N 31°25' E 121°30'0 0.0
2017-Aug-16 06:30N 31°25' E 121°30'0 0.0
2017-Aug-16 06:00N 31°25' E 121°30'0 0.0
2017-Aug-16 05:30N 31°25' E 121°30'0 0.0
2017-Aug-16 05:00N 31°25' E 121°30'0 0.0
2017-Aug-16 04:27N 31°25' E 121°30'0 0.0
2017-Aug-16 04:00N 31°25' E 121°30'0 0.0
2017-Aug-16 03:30N 31°25' E 121°30'0 0.0
2017-Aug-16 03:00N 31°25' E 121°30'0 0.0
2017-Aug-16 02:30N 31°25' E 121°30'0 0.0
2017-Aug-16 02:00N 31°25' E 121°30'0 0.0
2017-Aug-16 01:30N 31°25' E 121°30'0 0.0
2017-Aug-16 01:00N 31°25' E 121°30'0 0.0
2017-Aug-16 00:30N 31°25' E 121°30'0 0.0
2017-Aug-16 00:00N 31°25' E 121°30'0 0.0
2017-Aug-15 23:30N 31°25' E 121°30'0 0.0
2017-Aug-15 23:00N 31°25' E 121°30'0 0.0
2017-Aug-15 22:30N 31°25' E 121°30'1 2.4
2017-Aug-15 22:00N 31°25' E 121°32'511.0
2017-Aug-15 21:30N 31°22' E 121°37'5 9.9
2017-Aug-15 21:00N 31°20' E 121°42'5 9.4
2017-Aug-15 20:30N 31°18' E 121°47'611.6
2017-Aug-15 20:00N 31°16' E 121°54'5 9.9
2017-Aug-15 19:30N 31°15' E 121°59'510.0
2017-Aug-15 19:00N 31°14' E 122°05'5 9.6
2017-Aug-15 18:30N 31°11' E 122°10'5 9.4
2017-Aug-15 18:00N 31°09' E 122°14'4 8.4
2017-Aug-15 17:30N 31°06' E 122°18'4 7.3
2017-Aug-15 17:00N 31°06' E 122°23'4 7.5
2017-Aug-15 16:30N 31°07' E 122°27'7 9.8
2017-Aug-15 15:48N 31°07' E 122°35'514.9
2017-Aug-15 15:30N 31°07' E 122°40'312 6.7
2017-Aug-13 17:00N 32°24' E 128°36'32611.4 150 / 171006.910.8
2017-Aug-12 12:19N 31°06' E 122°24'514.7
2017-Aug-12 12:00N 31°06' E 122°18'815.0
2017-Aug-12 11:30N 31°10' E 122°11'715.1
2017-Aug-12 11:00N 31°14' E 122°04'815.6
2017-Aug-12 10:30N 31°16' E 121°55'815.2
2017-Aug-12 10:00N 31°18' E 121°46'713.0
2017-Aug-12 09:30N 31°21' E 121°39'612.1
2017-Aug-12 09:00N 31°24' E 121°33'3 5.0
2017-Aug-12 08:28N 31°25' E 121°30'0 0.0
2017-Aug-12 07:58N 31°25' E 121°30'0 0.0
2017-Aug-12 07:25N 31°25' E 121°30'0 0.0
2017-Aug-12 06:58N 31°25' E 121°30'0 0.0
2017-Aug-12 06:22N 31°25' E 121°30'0 0.0
2017-Aug-12 05:58N 31°25' E 121°30'0 0.0
2017-Aug-12 05:25N 31°25' E 121°30'0 0.0
2017-Aug-12 04:55N 31°25' E 121°30'0 0.0
2017-Aug-12 04:22N 31°25' E 121°30'0 0.0
2017-Aug-12 03:58N 31°25' E 121°30'0 0.0
2017-Aug-12 03:25N 31°25' E 121°30'0 0.0
2017-Aug-12 02:58N 31°25' E 121°30'0 0.0
2017-Aug-12 02:22N 31°25' E 121°30'0 0.0
2017-Aug-12 01:55N 31°25' E 121°30'0 0.0
2017-Aug-12 01:28N 31°25' E 121°30'0 0.0
2017-Aug-12 00:58N 31°25' E 121°30'0 0.0
2017-Aug-12 00:28N 31°25' E 121°30'0 0.0
2017-Aug-11 23:58N 31°25' E 121°30'0 0.0
2017-Aug-11 23:28N 31°25' E 121°30'0 0.0
2017-Aug-11 22:55N 31°25' E 121°30'0 0.0
2017-Aug-11 22:28N 31°25' E 121°30'0 0.0
2017-Aug-11 21:58N 31°25' E 121°30'0 0.0
2017-Aug-11 21:28N 31°25' E 121°30'0 0.0
2017-Aug-11 20:58N 31°25' E 121°30'0 0.0
2017-Aug-11 20:28N 31°25' E 121°30'0 0.0
2017-Aug-11 19:52N 31°25' E 121°30'0 0.0
2017-Aug-11 19:28N 31°25' E 121°30'0 0.0
2017-Aug-11 18:58N 31°25' E 121°30'0 0.0
2017-Aug-11 18:30N 31°25' E 121°30'1 2.3
2017-Aug-11 18:00N 31°25' E 121°32'510.6
2017-Aug-11 17:31N 31°22' E 121°37'610.9
2017-Aug-11 17:00N 31°20' E 121°43'611.4
2017-Aug-11 16:31N 31°17' E 121°49'611.5
2017-Aug-11 16:00N 31°16' E 121°55'611.8
2017-Aug-11 15:31N 31°14' E 122°02'510.5
2017-Aug-11 15:01N 31°13' E 122°08'10 9.9
2017-Aug-11 14:01N 31°07' E 122°17'510.7
2017-Aug-11 13:30N 31°06' E 122°23'713.7
2017-Aug-11 13:00N 31°07' E 122°31'27217.0
2017-Aug-10 21:00N 31°36' E 127°48'   330 / 141002.810.8

Dump ship's entire track history